sensor_id;sensor_type;location;lat;lon;timestamp;pressure;altitude;pressure_sealevel;temperature;humidity
59513;BME280;45330;51.634;5.562;2023-05-15T00:00:55;101439.28;;;11.39;100.00
59513;BME280;45330;51.634;5.562;2023-05-15T00:03:20;101424.50;;;11.26;100.00
59513;BME280;45330;51.634;5.562;2023-05-15T00:05:46;101443.63;;;11.31;100.00
59513;BME280;45330;51.634;5.562;2023-05-15T00:08:11;101446.22;;;11.29;100.00
59513;BME280;45330;51.634;5.562;2023-05-15T00:10:37;101441.00;;;11.23;100.00
59513;BME280;45330;51.634;5.562;2023-05-15T00:13:02;101422.75;;;11.08;100.00
59513;BME280;45330;51.634;5.562;2023-05-15T00:15:28;101427.09;;;11.07;100.00
59513;BME280;45330;51.634;5.562;2023-05-15T00:17:53;101432.28;;;11.10;100.00
59513;BME280;45330;51.634;5.562;2023-05-15T00:20:19;101412.31;;;11.00;100.00
59513;BME280;45330;51.634;5.562;2023-05-15T00:22:44;101428.81;;;11.04;100.00
59513;BME280;45330;51.634;5.562;2023-05-15T00:25:10;101424.47;;;10.99;100.00
59513;BME280;45330;51.634;5.562;2023-05-15T00:27:35;101417.53;;;10.97;100.00
59513;BME280;45330;51.634;5.562;2023-05-15T00:30:01;101413.19;;;10.94;100.00
59513;BME280;45330;51.634;5.562;2023-05-15T00:32:26;101414.91;;;10.92;100.00
59513;BME280;45330;51.634;5.562;2023-05-15T00:34:51;101420.97;;;10.84;100.00
59513;BME280;45330;51.634;5.562;2023-05-15T00:37:17;101400.97;;;10.67;100.00
59513;BME280;45330;51.634;5.562;2023-05-15T00:39:42;101426.13;;;10.74;100.00
59513;BME280;45330;51.634;5.562;2023-05-15T00:42:08;101431.34;;;10.68;100.00
59513;BME280;45330;51.634;5.562;2023-05-15T00:44:34;101424.38;;;10.67;100.00
59513;BME280;45330;51.634;5.562;2023-05-15T00:47:01;101408.75;;;10.55;100.00
59513;BME280;45330;51.634;5.562;2023-05-15T00:49:28;101419.19;;;10.55;100.00
59513;BME280;45330;51.634;5.562;2023-05-15T00:51:55;101396.56;;;10.38;100.00
59513;BME280;45330;51.634;5.562;2023-05-15T00:54:21;101401.75;;;10.35;100.00
59513;BME280;45330;51.634;5.562;2023-05-15T00:56:48;101398.25;;;10.35;100.00
59513;BME280;45330;51.634;5.562;2023-05-15T00:59:14;101413.03;;;10.42;100.00
59513;BME280;45330;51.634;5.562;2023-05-15T01:01:41;101393.03;;;10.28;100.00
59513;BME280;45330;51.634;5.562;2023-05-15T01:04:09;101412.09;;;10.29;100.00
59513;BME280;45330;51.634;5.562;2023-05-15T01:06:36;101404.28;;;10.24;100.00
59513;BME280;45330;51.634;5.562;2023-05-15T01:09:01;101404.28;;;10.26;100.00
59513;BME280;45330;51.634;5.562;2023-05-15T01:11:28;101393.81;;;10.12;100.00
59513;BME280;45330;51.634;5.562;2023-05-15T01:14:04;101417.22;;;10.17;100.00
59513;BME280;45330;51.634;5.562;2023-05-15T01:16:31;101395.56;;;10.13;100.00
59513;BME280;45330;51.634;5.562;2023-05-15T01:18:56;101396.34;;;10.00;100.00
59513;BME280;45330;51.634;5.562;2023-05-15T01:32:19;101401.53;;;9.98;100.00
59513;BME280;45330;51.634;5.562;2023-05-15T01:34:56;101396.31;;;9.92;100.00
59513;BME280;45330;51.634;5.562;2023-05-15T01:37:24;101385.88;;;9.86;100.00
59513;BME280;45330;51.634;5.562;2023-05-15T01:39:55;101399.75;;;9.88;100.00
59513;BME280;45330;51.634;5.562;2023-05-15T01:42:29;101395.41;;;9.85;100.00
59513;BME280;45330;51.634;5.562;2023-05-15T01:44:55;101393.66;;;9.84;100.00
59513;BME280;45330;51.634;5.562;2023-05-15T01:47:26;101379.72;;;9.71;100.00
59513;BME280;45330;51.634;5.562;2023-05-15T01:49:52;101391.88;;;9.75;100.00
59513;BME280;45330;51.634;5.562;2023-05-15T01:52:23;101377.94;;;9.63;100.00
59513;BME280;45330;51.634;5.562;2023-05-15T01:54:52;101388.38;;;9.70;100.00
59513;BME280;45330;51.634;5.562;2023-05-15T01:57:19;101389.25;;;9.69;100.00
59513;BME280;45330;51.634;5.562;2023-05-15T01:59:45;101384.84;;;9.59;100.00
59513;BME280;45330;51.634;5.562;2023-05-15T02:02:12;101372.66;;;9.50;100.00
59513;BME280;45330;51.634;5.562;2023-05-15T02:04:38;101365.69;;;9.43;100.00
59513;BME280;45330;51.634;5.562;2023-05-15T02:07:05;101390.00;;;9.51;100.00
59513;BME280;45330;51.634;5.562;2023-05-15T02:09:32;101365.66;;;9.37;100.00
59513;BME280;45330;51.634;5.562;2023-05-15T02:11:59;101385.63;;;9.49;100.00
59513;BME280;45330;51.634;5.562;2023-05-15T02:14:27;101386.47;;;9.46;100.00
59513;BME280;45330;51.634;5.562;2023-05-15T02:16:53;101378.69;;;9.44;100.00
59513;BME280;45330;51.634;5.562;2023-05-15T02:19:18;101383.91;;;9.48;100.00
59513;BME280;45330;51.634;5.562;2023-05-15T02:21:44;101363.06;;;9.35;100.00
59513;BME280;45330;51.634;5.562;2023-05-15T02:24:09;101369.13;;;9.39;100.00
59513;BME280;45330;51.634;5.562;2023-05-15T02:29:18;101369.97;;;9.36;100.00
59513;BME280;45330;51.634;5.562;2023-05-15T02:31:58;101359.50;;;9.25;100.00
59513;BME280;45330;51.634;5.562;2023-05-15T02:35:02;101378.63;;;9.35;100.00
59513;BME280;45330;51.634;5.562;2023-05-15T02:37:32;101382.94;;;9.35;100.00
59513;BME280;45330;51.634;5.562;2023-05-15T02:40:00;101368.16;;;9.26;100.00
59513;BME280;45330;51.634;5.562;2023-05-15T02:42:26;101379.47;;;9.31;100.00
59513;BME280;45330;51.634;5.562;2023-05-15T02:44:54;101385.53;;;9.33;100.00
59513;BME280;45330;51.634;5.562;2023-05-15T02:47:20;101363.78;;;9.20;100.00
59513;BME280;45330;51.634;5.562;2023-05-15T02:49:47;101379.47;;;9.31;100.00
59513;BME280;45330;51.634;5.562;2023-05-15T02:52:13;101373.31;;;9.20;100.00
59513;BME280;45330;51.634;5.562;2023-05-15T02:54:39;101372.44;;;9.22;100.00
59513;BME280;45330;51.634;5.562;2023-05-15T02:57:05;101384.59;;;9.26;100.00
59513;BME280;45330;51.634;5.562;2023-05-15T02:59:32;101374.19;;;9.20;100.00
59513;BME280;45330;51.634;5.562;2023-05-15T03:01:57;101378.53;;;9.23;100.00
59513;BME280;45330;51.634;5.562;2023-05-15T03:04:23;101380.25;;;9.24;100.00
59513;BME280;45330;51.634;5.562;2023-05-15T03:06:48;101363.75;;;9.14;100.00
59513;BME280;45330;51.634;5.562;2023-05-15T03:09:14;101376.78;;;9.22;100.00
59513;BME280;45330;51.634;5.562;2023-05-15T03:11:39;101374.19;;;9.20;100.00
59513;BME280;45330;51.634;5.562;2023-05-15T03:14:04;101374.16;;;9.19;100.00
59513;BME280;45330;51.634;5.562;2023-05-15T03:16:30;101382.81;;;9.19;100.00
59513;BME280;45330;51.634;5.562;2023-05-15T03:18:55;101381.94;;;9.16;100.00
59513;BME280;45330;51.634;5.562;2023-05-15T03:21:20;101358.47;;;9.03;100.00
59513;BME280;45330;51.634;5.562;2023-05-15T03:23:46;101364.50;;;9.02;100.00
59513;BME280;45330;51.634;5.562;2023-05-15T03:26:11;101361.88;;;8.99;100.00
59513;BME280;45330;51.634;5.562;2023-05-15T03:28:37;101379.25;;;9.06;100.00
59513;BME280;45330;51.634;5.562;2023-05-15T03:31:02;101383.53;;;9.03;100.00
59513;BME280;45330;51.634;5.562;2023-05-15T03:33:29;101364.44;;;8.93;100.00
59513;BME280;45330;51.634;5.562;2023-05-15T03:35:55;101372.22;;;8.95;100.00
59513;BME280;45330;51.634;5.562;2023-05-15T03:38:20;101373.94;;;8.92;100.00
59513;BME280;45330;51.634;5.562;2023-05-15T03:40:46;101359.13;;;8.81;100.00
59513;BME280;45330;51.634;5.562;2023-05-15T03:43:11;101348.66;;;8.74;100.00
59513;BME280;45330;51.634;5.562;2023-05-15T03:45:37;101358.22;;;8.79;100.00
59513;BME280;45330;51.634;5.562;2023-05-15T03:48:03;101348.63;;;8.70;100.00
59513;BME280;45330;51.634;5.562;2023-05-15T03:50:29;101340.84;;;8.70;100.00
59513;BME280;45330;51.634;5.562;2023-05-15T03:52:54;101337.41;;;8.69;100.00
59513;BME280;45330;51.634;5.562;2023-05-15T03:55:20;101349.56;;;8.75;100.00
59513;BME280;45330;51.634;5.562;2023-05-15T03:57:45;101351.25;;;8.73;100.00
59513;BME280;45330;51.634;5.562;2023-05-15T04:00:11;101368.69;;;8.85;100.00
59513;BME280;45330;51.634;5.562;2023-05-15T04:02:37;101360.00;;;8.81;100.00
59513;BME280;45330;51.634;5.562;2023-05-15T04:05:03;101367.88;;;8.89;100.00
59513;BME280;45330;51.634;5.562;2023-05-15T04:07:31;101367.91;;;8.93;100.00
59513;BME280;45330;51.634;5.562;2023-05-15T04:09:56;101357.53;;;8.97;100.00
59513;BME280;45330;51.634;5.562;2023-05-15T04:12:25;101359.31;;;9.04;100.00
59513;BME280;45330;51.634;5.562;2023-05-15T04:14:54;101340.25;;;8.99;100.00
59513;BME280;45330;51.634;5.562;2023-05-15T04:17:19;101350.81;;;9.19;100.00
59513;BME280;45330;51.634;5.562;2023-05-15T04:19:45;101356.03;;;9.23;100.00
59513;BME280;45330;51.634;5.562;2023-05-15T04:22:12;101354.31;;;9.27;100.00
59513;BME280;45330;51.634;5.562;2023-05-15T04:24:38;101356.97;;;9.33;100.00
59513;BME280;45330;51.634;5.562;2023-05-15T04:27:03;101343.94;;;9.25;100.00
59513;BME280;45330;51.634;5.562;2023-05-15T04:29:29;101361.28;;;9.33;100.00
59513;BME280;45330;51.634;5.562;2023-05-15T04:31:54;101343.03;;;9.23;100.00
59513;BME280;45330;51.634;5.562;2023-05-15T04:34:20;101362.16;;;9.33;100.00
59513;BME280;45330;51.634;5.562;2023-05-15T04:36:45;101358.69;;;9.33;100.00
59513;BME280;45330;51.634;5.562;2023-05-15T04:39:10;101355.25;;;9.35;100.00
59513;BME280;45330;51.634;5.562;2023-05-15T04:41:36;101376.16;;;9.52;100.00
59513;BME280;45330;51.634;5.562;2023-05-15T04:44:02;101368.34;;;9.51;100.00
59513;BME280;45330;51.634;5.562;2023-05-15T04:46:27;101384.00;;;9.63;100.00
59513;BME280;45330;51.634;5.562;2023-05-15T04:48:53;101386.66;;;9.66;100.00
59513;BME280;45330;51.634;5.562;2023-05-15T04:51:18;101371.84;;;9.59;100.00
59513;BME280;45330;51.634;5.562;2023-05-15T04:53:43;101390.09;;;9.65;100.00
59513;BME280;45330;51.634;5.562;2023-05-15T04:56:09;101393.63;;;9.78;100.00
59513;BME280;45330;51.634;5.562;2023-05-15T04:58:35;101389.28;;;9.72;100.00
59513;BME280;45330;51.634;5.562;2023-05-15T05:01:00;101406.63;;;9.78;100.00
59513;BME280;45330;51.634;5.562;2023-05-15T05:03:26;101405.78;;;9.84;100.00
59513;BME280;45330;51.634;5.562;2023-05-15T05:05:51;101411.94;;;9.98;100.00
59513;BME280;45330;51.634;5.562;2023-05-15T05:08:16;101407.66;;;10.11;100.00
59513;BME280;45330;51.634;5.562;2023-05-15T05:10:42;101387.88;;;10.35;100.00
59513;BME280;45330;51.634;5.562;2023-05-15T05:13:07;101404.50;;;11.08;100.00
59513;BME280;45330;51.634;5.562;2023-05-15T05:15:32;101402.75;;;11.50;100.00
59513;BME280;45330;51.634;5.562;2023-05-15T05:17:58;101389.69;;;11.95;100.00
59513;BME280;45330;51.634;5.562;2023-05-15T05:20:23;101405.94;;;12.63;100.00
59513;BME280;45330;51.634;5.562;2023-05-15T05:22:49;101409.94;;;13.15;100.00
59513;BME280;45330;51.634;5.562;2023-05-15T05:25:14;101396.03;;;14.05;100.00
59513;BME280;45330;51.634;5.562;2023-05-15T05:27:40;101415.25;;;14.74;100.00
59513;BME280;45330;51.634;5.562;2023-05-15T05:30:06;101421.34;;;14.74;100.00
59513;BME280;45330;51.634;5.562;2023-05-15T05:32:32;101409.66;;;14.30;100.00
59513;BME280;45330;51.634;5.562;2023-05-15T05:34:58;101431.25;;;13.75;100.00
59513;BME280;45330;51.634;5.562;2023-05-15T05:37:23;101425.56;;;13.21;100.00
59513;BME280;45330;51.634;5.562;2023-05-15T05:39:48;101427.56;;;12.82;100.00
59513;BME280;45330;51.634;5.562;2023-05-15T05:42:14;101424.22;;;12.62;100.00
59513;BME280;45330;51.634;5.562;2023-05-15T05:44:39;101405.09;;;12.57;100.00
59513;BME280;45330;51.634;5.562;2023-05-15T05:47:05;101401.47;;;12.79;100.00
59513;BME280;45330;51.634;5.562;2023-05-15T05:49:30;101422.81;;;13.45;100.00
59513;BME280;45330;51.634;5.562;2023-05-15T05:51:55;101408.50;;;14.54;100.00
59513;BME280;45330;51.634;5.562;2023-05-15T05:54:21;101411.09;;;15.17;100.00
59513;BME280;45330;51.634;5.562;2023-05-15T05:56:46;101423.38;;;16.13;100.00
59513;BME280;45330;51.634;5.562;2023-05-15T05:59:12;101408.59;;;17.28;100.00
59513;BME280;45330;51.634;5.562;2023-05-15T06:01:37;101424.03;;;18.09;93.18
59513;BME280;45330;51.634;5.562;2023-05-15T06:04:03;101418.78;;;18.09;82.99
59513;BME280;45330;51.634;5.562;2023-05-15T06:06:28;101428.78;;;17.96;83.46
59513;BME280;45330;51.634;5.562;2023-05-15T06:08:54;101421.38;;;16.68;85.93
59513;BME280;45330;51.634;5.562;2023-05-15T06:11:19;101431.16;;;15.71;93.18
59513;BME280;45330;51.634;5.562;2023-05-15T06:13:45;101411.34;;;16.03;94.70
59513;BME280;45330;51.634;5.562;2023-05-15T06:16:11;101416.16;;;16.67;91.50
59513;BME280;45330;51.634;5.562;2023-05-15T06:18:36;101432.13;;;17.69;84.30
59513;BME280;45330;51.634;5.562;2023-05-15T06:21:01;101429.94;;;18.17;78.29
59513;BME280;45330;51.634;5.562;2023-05-15T06:23:27;101443.72;;;18.57;74.71
59513;BME280;45330;51.634;5.562;2023-05-15T06:25:53;101423.81;;;18.17;74.19
59513;BME280;45330;51.634;5.562;2023-05-15T06:28:18;101436.78;;;17.93;73.29
59513;BME280;45330;51.634;5.562;2023-05-15T06:30:43;101435.69;;;16.95;77.18
59513;BME280;45330;51.634;5.562;2023-05-15T06:33:09;101439.78;;;17.43;77.77
59513;BME280;45330;51.634;5.562;2023-05-15T06:35:34;101435.66;;;17.67;76.86
59513;BME280;45330;51.634;5.562;2023-05-15T06:38:00;101423.44;;;17.66;75.83
59513;BME280;45330;51.634;5.562;2023-05-15T06:40:26;101424.41;;;16.90;78.92
59513;BME280;45330;51.634;5.562;2023-05-15T06:42:51;101425.47;;;15.97;84.66
59513;BME280;45330;51.634;5.562;2023-05-15T06:45:16;101431.59;;;15.46;89.23
59513;BME280;45330;51.634;5.562;2023-05-15T06:47:42;101406.94;;;15.05;92.57
59513;BME280;45330;51.634;5.562;2023-05-15T06:50:07;101432.25;;;15.06;95.09
59513;BME280;45330;51.634;5.562;2023-05-15T06:52:33;101411.00;;;14.64;94.18
59513;BME280;45330;51.634;5.562;2023-05-15T06:54:59;101424.16;;;14.59;99.21
59513;BME280;45330;51.634;5.562;2023-05-15T06:57:24;101423.50;;;14.43;100.00
59513;BME280;45330;51.634;5.562;2023-05-15T06:59:51;101434.34;;;14.12;100.00
59513;BME280;45330;51.634;5.562;2023-05-15T07:02:16;101430.75;;;14.21;100.00
59513;BME280;45330;51.634;5.562;2023-05-15T07:04:42;101419.16;;;14.40;100.00
59513;BME280;45330;51.634;5.562;2023-05-15T07:07:07;101421.50;;;14.61;100.00
59513;BME280;45330;51.634;5.562;2023-05-15T07:09:32;101417.25;;;14.52;100.00
59513;BME280;45330;51.634;5.562;2023-05-15T07:11:59;101422.44;;;14.56;100.00
59513;BME280;45330;51.634;5.562;2023-05-15T07:14:25;101419.19;;;14.36;98.78
59513;BME280;45330;51.634;5.562;2023-05-15T07:16:50;101417.69;;;14.19;100.00
59513;BME280;45330;51.634;5.562;2023-05-15T07:19:18;101417.66;;;14.21;100.00
59513;BME280;45330;51.634;5.562;2023-05-15T07:21:47;101422.81;;;14.26;100.00
59513;BME280;45330;51.634;5.562;2023-05-15T07:24:12;101424.31;;;14.45;100.00
59513;BME280;45330;51.634;5.562;2023-05-15T07:26:37;101435.03;;;14.27;100.00
59513;BME280;45330;51.634;5.562;2023-05-15T07:29:03;101427.03;;;14.39;100.00
59513;BME280;45330;51.634;5.562;2023-05-15T07:31:28;101426.56;;;14.76;100.00
59513;BME280;45330;51.634;5.562;2023-05-15T07:33:55;101419.78;;;15.19;100.00
59513;BME280;45330;51.634;5.562;2023-05-15T07:36:21;101417.56;;;15.49;97.10
59513;BME280;45330;51.634;5.562;2023-05-15T07:38:46;101403.69;;;15.42;94.11
59513;BME280;45330;51.634;5.562;2023-05-15T07:41:11;101412.31;;;15.50;95.12
59513;BME280;45330;51.634;5.562;2023-05-15T07:43:37;101402.53;;;15.58;92.90
59513;BME280;45330;51.634;5.562;2023-05-15T07:46:02;101412.88;;;15.66;92.05
59513;BME280;45330;51.634;5.562;2023-05-15T07:48:28;101414.44;;;15.76;92.84
59513;BME280;45330;51.634;5.562;2023-05-15T07:50:53;101398.03;;;15.67;92.69
59513;BME280;45330;51.634;5.562;2023-05-15T07:53:19;101398.03;;;15.67;91.25
59513;BME280;45330;51.634;5.562;2023-05-15T07:55:45;101410.13;;;15.74;92.48
59513;BME280;45330;51.634;5.562;2023-05-15T07:58:10;101391.03;;;15.66;93.37
59513;BME280;45330;51.634;5.562;2023-05-15T08:00:36;101402.13;;;15.82;91.28
59513;BME280;45330;51.634;5.562;2023-05-15T08:03:02;101387.75;;;15.54;87.50
59513;BME280;45330;51.634;5.562;2023-05-15T08:05:27;101409.59;;;15.55;88.96
59513;BME280;45330;51.634;5.562;2023-05-15T08:07:54;101401.69;;;15.56;92.47
59513;BME280;45330;51.634;5.562;2023-05-15T08:10:20;101390.34;;;15.56;93.30
59513;BME280;45330;51.634;5.562;2023-05-15T08:12:45;101398.03;;;15.67;93.79
59513;BME280;45330;51.634;5.562;2023-05-15T08:15:11;101382.72;;;15.42;90.69
59513;BME280;45330;51.634;5.562;2023-05-15T08:17:37;101388.03;;;15.39;90.65
59513;BME280;45330;51.634;5.562;2023-05-15T08:20:02;101393.97;;;15.49;89.86
59513;BME280;45330;51.634;5.562;2023-05-15T08:22:29;101395.63;;;15.54;90.15
59513;BME280;45330;51.634;5.562;2023-05-15T08:24:54;101377.13;;;15.60;89.07
59513;BME280;45330;51.634;5.562;2023-05-15T08:27:20;101398.41;;;15.95;87.45
59513;BME280;45330;51.634;5.562;2023-05-15T08:29:45;101406.56;;;16.23;82.85
59513;BME280;45330;51.634;5.562;2023-05-15T08:32:11;101400.47;;;16.62;83.56
59513;BME280;45330;51.634;5.562;2023-05-15T08:34:37;101391.97;;;16.91;79.89
59513;BME280;45330;51.634;5.562;2023-05-15T08:37:03;101408.31;;;17.04;77.94
59513;BME280;45330;51.634;5.562;2023-05-15T08:39:29;101404.63;;;17.11;76.26
59513;BME280;45330;51.634;5.562;2023-05-15T08:44:27;101404.81;;;17.73;77.90
59513;BME280;45330;51.634;5.562;2023-05-15T08:46:53;101403.63;;;18.17;72.98
59513;BME280;45330;51.634;5.562;2023-05-15T08:49:50;101404.34;;;18.52;74.25
59513;BME280;45330;51.634;5.562;2023-05-15T08:52:18;101400.13;;;18.47;72.21
59513;BME280;45330;51.634;5.562;2023-05-15T08:54:44;101402.25;;;18.64;70.09
59513;BME280;45330;51.634;5.562;2023-05-15T08:57:12;101394.47;;;18.59;68.60
59513;BME280;45330;51.634;5.562;2023-05-15T08:59:39;101404.75;;;18.39;69.14
59513;BME280;45330;51.634;5.562;2023-05-15T09:02:04;101393.69;;;18.27;70.67
59513;BME280;45330;51.634;5.562;2023-05-15T09:04:29;101391.69;;;18.36;70.54
59513;BME280;45330;51.634;5.562;2023-05-15T09:06:56;101398.88;;;18.59;70.98
59513;BME280;45330;51.634;5.562;2023-05-15T09:09:23;101398.94;;;18.57;69.77
59513;BME280;45330;51.634;5.562;2023-05-15T09:11:49;101395.19;;;18.64;69.19
59513;BME280;45330;51.634;5.562;2023-05-15T09:14:15;101396.22;;;18.89;66.26
59513;BME280;45330;51.634;5.562;2023-05-15T09:16:40;101387.25;;;18.94;66.01
59513;BME280;45330;51.634;5.562;2023-05-15T09:19:06;101404.75;;;18.97;66.24
59513;BME280;45330;51.634;5.562;2023-05-15T09:21:32;101403.16;;;18.91;67.73
59513;BME280;45330;51.634;5.562;2023-05-15T09:24:18;101405.72;;;19.21;69.73
59513;BME280;45330;51.634;5.562;2023-05-15T09:26:45;101408.59;;;19.40;66.09
59513;BME280;45330;51.634;5.562;2023-05-15T09:29:14;101395.66;;;19.58;64.99
59513;BME280;45330;51.634;5.562;2023-05-15T09:31:39;101397.75;;;19.75;63.94
59513;BME280;45330;51.634;5.562;2023-05-15T09:34:05;101382.81;;;19.74;63.16
59513;BME280;45330;51.634;5.562;2023-05-15T09:36:33;101393.47;;;19.70;61.99
59513;BME280;45330;51.634;5.562;2023-05-15T09:39:00;101389.28;;;19.65;63.51
59513;BME280;45330;51.634;5.562;2023-05-15T09:41:26;101395.72;;;19.31;62.93
59513;BME280;45330;51.634;5.562;2023-05-15T09:43:52;101379.25;;;18.97;63.91
59513;BME280;45330;51.634;5.562;2023-05-15T09:46:21;101389.63;;;19.29;64.77
59513;BME280;45330;51.634;5.562;2023-05-15T09:48:46;101393.47;;;19.45;64.56
59513;BME280;45330;51.634;5.562;2023-05-15T09:51:16;101397.41;;;19.59;65.36
59513;BME280;45330;51.634;5.562;2023-05-15T09:53:47;101384.53;;;19.49;63.23
59513;BME280;45330;51.634;5.562;2023-05-15T09:56:14;101382.50;;;19.31;63.60
59513;BME280;45330;51.634;5.562;2023-05-15T09:58:51;101392.19;;;19.57;66.29
59513;BME280;45330;51.634;5.562;2023-05-15T10:01:19;101396.31;;;19.64;64.49
59513;BME280;45330;51.634;5.562;2023-05-15T10:03:58;101385.75;;;19.64;65.90
59513;BME280;45330;51.634;5.562;2023-05-15T10:06:24;101403.41;;;19.64;64.89
59513;BME280;45330;51.634;5.562;2023-05-15T10:08:53;101390.78;;;19.72;65.68
59513;BME280;45330;51.634;5.562;2023-05-15T10:11:19;101405.22;;;19.87;64.49
59513;BME280;45330;51.634;5.562;2023-05-15T10:13:48;101398.06;;;19.65;64.49
59513;BME280;45330;51.634;5.562;2023-05-15T10:16:14;101392.88;;;19.62;64.26
59513;BME280;45330;51.634;5.562;2023-05-15T10:18:40;101394.69;;;19.60;65.18
59513;BME280;45330;51.634;5.562;2023-05-15T10:21:07;101408.97;;;19.54;65.71
59513;BME280;45330;51.634;5.562;2023-05-15T10:23:35;101416.06;;;19.27;67.43
59513;BME280;45330;51.634;5.562;2023-05-15T10:26:04;101408.88;;;19.32;68.18
59513;BME280;45330;51.634;5.562;2023-05-15T10:28:30;101406.25;;;19.32;68.21
59513;BME280;45330;51.634;5.562;2023-05-15T10:31:00;101404.97;;;19.17;69.32
59513;BME280;45330;51.634;5.562;2023-05-15T10:33:28;101401.38;;;19.20;68.61
59513;BME280;45330;51.634;5.562;2023-05-15T10:35:55;101398.00;;;19.15;68.20
59513;BME280;45330;51.634;5.562;2023-05-15T10:38:20;101412.25;;;19.09;70.37
59513;BME280;45330;51.634;5.562;2023-05-15T10:40:47;101414.69;;;19.15;70.47
59513;BME280;45330;51.634;5.562;2023-05-15T10:43:13;101411.09;;;19.18;70.17
59513;BME280;45330;51.634;5.562;2023-05-15T10:45:40;101408.88;;;19.32;69.25
59513;BME280;45330;51.634;5.562;2023-05-15T10:48:06;101400.41;;;19.23;67.85
59513;BME280;45330;51.634;5.562;2023-05-15T10:50:32;101401.97;;;19.28;68.95
59513;BME280;45330;51.634;5.562;2023-05-15T10:52:58;101389.16;;;19.43;69.62
59513;BME280;45330;51.634;5.562;2023-05-15T10:55:24;101398.91;;;19.66;68.88
59513;BME280;45330;51.634;5.562;2023-05-15T10:57:50;101404.56;;;19.82;67.33
59513;BME280;45330;51.634;5.562;2023-05-15T11:02:47;101398.28;;;19.59;67.35
59513;BME280;45330;51.634;5.562;2023-05-15T11:05:13;101404.94;;;19.44;68.69
59513;BME280;45330;51.634;5.562;2023-05-15T11:07:38;101408.94;;;19.29;68.08
59513;BME280;45330;51.634;5.562;2023-05-15T11:12:57;101399.44;;;18.68;73.12
59513;BME280;45330;51.634;5.562;2023-05-15T11:15:23;101409.38;;;18.60;74.23
59513;BME280;45330;51.634;5.562;2023-05-15T11:18:04;101420.75;;;18.62;74.60
59513;BME280;45330;51.634;5.562;2023-05-15T11:20:37;101405.84;;;18.31;75.37
59513;BME280;45330;51.634;5.562;2023-05-15T11:23:02;101425.72;;;18.12;76.08
59513;BME280;45330;51.634;5.562;2023-05-15T11:25:30;101420.53;;;17.76;77.55
59513;BME280;45330;51.634;5.562;2023-05-15T11:27:56;101416.66;;;17.56;79.50
59513;BME280;45330;51.634;5.562;2023-05-15T11:30:22;101393.72;;;17.27;80.80
59513;BME280;45330;51.634;5.562;2023-05-15T11:33:04;101418.31;;;16.88;83.81
59513;BME280;45330;51.634;5.562;2023-05-15T11:35:41;101398.50;;;16.72;86.52
59513;BME280;45330;51.634;5.562;2023-05-15T11:38:14;101403.66;;;16.78;88.45
59513;BME280;45330;51.634;5.562;2023-05-15T11:40:47;101412.34;;;16.80;89.49
59513;BME280;45330;51.634;5.562;2023-05-15T11:45:45;101394.53;;;16.55;90.02
59513;BME280;45330;51.634;5.562;2023-05-15T11:48:12;101388.75;;;16.38;91.68
59513;BME280;45330;51.634;5.562;2023-05-15T11:50:40;101398.47;;;16.33;91.95
59513;BME280;45330;51.634;5.562;2023-05-15T11:53:08;101406.16;;;16.43;94.21
59513;BME280;45330;51.634;5.562;2023-05-15T11:55:36;101397.13;;;16.57;94.52
59513;BME280;45330;51.634;5.562;2023-05-15T11:58:02;101392.16;;;16.82;91.77
59513;BME280;45330;51.634;5.562;2023-05-15T12:00:29;101400.66;;;16.95;91.52
59513;BME280;45330;51.634;5.562;2023-05-15T12:02:54;101396.34;;;17.28;90.53
59513;BME280;45330;51.634;5.562;2023-05-15T12:05:20;101407.63;;;17.66;86.96
59513;BME280;45330;51.634;5.562;2023-05-15T12:07:46;101405.72;;;17.72;85.83
59513;BME280;45330;51.634;5.562;2023-05-15T12:10:12;101404.16;;;17.64;86.33
59513;BME280;45330;51.634;5.562;2023-05-15T12:12:42;101401.13;;;17.47;86.77
59513;BME280;45330;51.634;5.562;2023-05-15T12:15:13;101392.56;;;17.39;88.28
59513;BME280;45330;51.634;5.562;2023-05-15T12:17:40;101391.28;;;17.19;88.41
59513;BME280;45330;51.634;5.562;2023-05-15T12:20:24;101393.88;;;17.21;90.11
59513;BME280;45330;51.634;5.562;2023-05-15T12:22:49;101402.97;;;17.07;91.13
59513;BME280;45330;51.634;5.562;2023-05-15T12:25:15;101391.47;;;17.13;89.83
59513;BME280;45330;51.634;5.562;2023-05-15T12:27:40;101380.31;;;17.38;89.67
59513;BME280;45330;51.634;5.562;2023-05-15T12:30:07;101397.50;;;17.84;87.58
59513;BME280;45330;51.634;5.562;2023-05-15T12:32:35;101393.81;;;18.52;84.11
59513;BME280;45330;51.634;5.562;2023-05-15T12:35:03;101391.59;;;19.22;79.33
59513;BME280;45330;51.634;5.562;2023-05-15T12:37:34;101386.88;;;19.32;78.97
59513;BME280;45330;51.634;5.562;2023-05-15T12:40:04;101400.19;;;19.29;77.40
59513;BME280;45330;51.634;5.562;2023-05-15T12:42:43;101391.56;;;18.97;78.94
59513;BME280;45330;51.634;5.562;2023-05-15T12:45:16;101400.53;;;18.33;82.28
59513;BME280;45330;51.634;5.562;2023-05-15T12:47:43;101405.63;;;17.75;84.52
59513;BME280;45330;51.634;5.562;2023-05-15T12:52:54;101392.84;;;16.90;92.20
59513;BME280;45330;51.634;5.562;2023-05-15T12:55:26;101403.84;;;16.69;94.93
59513;BME280;45330;51.634;5.562;2023-05-15T12:57:55;101404.34;;;16.47;97.26
59513;BME280;45330;51.634;5.562;2023-05-15T13:00:22;101385.06;;;16.04;100.00
59513;BME280;45330;51.634;5.562;2023-05-15T13:02:49;101392.28;;;15.93;100.00
59513;BME280;45330;51.634;5.562;2023-05-15T13:05:15;101383.50;;;15.95;100.00
59513;BME280;45330;51.634;5.562;2023-05-15T13:07:43;101399.25;;;15.95;100.00
59513;BME280;45330;51.634;5.562;2023-05-15T13:10:09;101394.22;;;15.83;100.00
59513;BME280;45330;51.634;5.562;2023-05-15T13:12:41;101394.22;;;15.83;100.00